createdAt,value
2023-02-05T00:01:28.340Z,11.97
2023-02-05T00:03:55.109Z,12.63
2023-02-05T00:06:22.329Z,9.33
2023-02-05T00:08:49.148Z,10.47
2023-02-05T00:11:15.842Z,9.13
2023-02-05T00:13:43.552Z,10.13
2023-02-05T00:16:12.974Z,9.23
2023-02-05T00:18:39.975Z,11.23
2023-02-05T00:21:07.839Z,9.43
2023-02-05T00:23:35.381Z,9.53
2023-02-05T00:26:02.893Z,8.27
2023-02-05T00:28:32.829Z,9.33
2023-02-05T00:31:00.358Z,8.80
2023-02-05T00:33:27.412Z,12.00
2023-02-05T00:35:54.168Z,8.90
2023-02-05T00:38:20.851Z,11.57
2023-02-05T00:40:47.555Z,8.70
2023-02-05T00:43:14.264Z,10.03
2023-02-05T00:45:40.953Z,8.03
2023-02-05T00:48:07.647Z,8.97
2023-02-05T00:50:35.220Z,8.57
2023-02-05T00:53:02.371Z,7.87
2023-02-05T00:55:29.240Z,9.47
2023-02-05T00:57:55.925Z,7.17
2023-02-05T01:00:22.898Z,11.20
2023-02-05T01:02:49.648Z,6.77
2023-02-05T01:05:16.442Z,9.03
2023-02-05T01:07:43.060Z,6.47
2023-02-05T01:10:10.088Z,8.67
2023-02-05T01:12:36.782Z,6.80
2023-02-05T01:15:06.339Z,6.90
2023-02-05T01:17:33.187Z,10.80
2023-02-05T01:19:59.858Z,7.37
2023-02-05T01:22:26.545Z,9.60
2023-02-05T01:24:53.581Z,7.83
2023-02-05T01:27:20.241Z,8.53
2023-02-05T01:29:47.215Z,6.77
2023-02-05T01:32:14.109Z,8.77
2023-02-05T01:34:40.811Z,5.93
2023-02-05T01:37:07.739Z,8.27
2023-02-05T01:39:36.345Z,8.27
2023-02-05T01:42:16.609Z,8.67
2023-02-05T01:44:43.290Z,5.63
2023-02-05T01:47:09.989Z,6.30
2023-02-05T01:49:43.097Z,7.00
2023-02-05T01:52:15.410Z,5.97
2023-02-05T01:54:46.556Z,7.00
2023-02-05T01:57:25.285Z,6.23
2023-02-05T01:59:52.032Z,8.00
2023-02-05T02:02:18.906Z,7.00
2023-02-05T02:04:49.118Z,8.80
2023-02-05T02:07:21.394Z,5.00
2023-02-05T02:09:49.333Z,5.40
2023-02-05T02:12:21.041Z,5.93
2023-02-05T02:14:51.373Z,9.20
2023-02-05T02:17:19.709Z,6.00
2023-02-05T02:20:08.336Z,10.53
2023-02-05T02:22:55.638Z,7.97
2023-02-05T02:25:46.911Z,7.83
2023-02-05T02:28:28.717Z,8.20
2023-02-05T02:31:11.826Z,6.53
2023-02-05T02:33:50.733Z,8.37
2023-02-05T02:36:30.274Z,7.57
2023-02-05T02:39:36.915Z,9.97
2023-02-05T02:42:06.397Z,9.63
2023-02-05T02:44:45.451Z,7.80
2023-02-05T02:47:22.117Z,7.40
2023-02-05T02:50:00.012Z,10.73
2023-02-05T02:52:28.725Z,7.40
2023-02-05T02:55:04.349Z,7.27
2023-02-05T02:57:34.518Z,10.27
2023-02-05T03:00:03.964Z,8.83
2023-02-05T03:02:33.768Z,11.30
2023-02-05T03:05:07.374Z,9.50
2023-02-05T03:07:42.787Z,8.80
2023-02-05T03:10:17.098Z,7.57
2023-02-05T03:12:44.431Z,7.10
2023-02-05T03:15:11.766Z,7.70
2023-02-05T03:17:40.165Z,6.90
2023-02-05T03:20:21.552Z,8.93
2023-02-05T03:22:48.927Z,11.50
2023-02-05T03:25:20.254Z,10.17
2023-02-05T03:27:47.920Z,8.50
2023-02-05T03:30:15.413Z,9.57
2023-02-05T03:33:12.579Z,8.70
2023-02-05T03:35:47.280Z,7.80
2023-02-05T03:38:23.438Z,9.70
2023-02-05T03:41:03.673Z,9.60
2023-02-05T03:43:40.291Z,8.67
2023-02-05T03:46:17.754Z,9.40
2023-02-05T03:49:12.521Z,8.40
2023-02-05T03:52:00.810Z,10.87
2023-02-05T03:54:51.760Z,9.33
2023-02-05T03:57:27.360Z,7.43
2023-02-05T03:59:55.413Z,12.13
2023-02-05T04:02:24.621Z,8.57
2023-02-05T04:04:52.942Z,8.63
2023-02-05T04:07:19.827Z,9.40
2023-02-05T04:09:46.603Z,13.00
2023-02-05T04:12:13.630Z,7.83
2023-02-05T04:14:40.424Z,10.47
2023-02-05T04:17:08.016Z,7.97
2023-02-05T04:19:37.374Z,7.50
2023-02-05T04:22:04.194Z,7.97
2023-02-05T04:24:31.351Z,10.97
2023-02-05T04:26:58.091Z,9.13
2023-02-05T04:29:25.054Z,7.53
2023-02-05T04:31:51.832Z,8.17
2023-02-05T04:34:18.921Z,7.07
2023-02-05T04:36:45.966Z,8.63
2023-02-05T04:39:14.389Z,7.87
2023-02-05T04:41:41.257Z,7.13
2023-02-05T04:44:08.939Z,6.27
2023-02-05T04:46:35.986Z,8.27
2023-02-05T04:49:02.858Z,6.57
2023-02-05T04:51:29.652Z,7.50
2023-02-05T04:53:56.404Z,5.73
2023-02-05T04:56:23.138Z,8.80
2023-02-05T04:58:50.158Z,10.00
2023-02-05T05:01:19.654Z,7.30
2023-02-05T05:03:47.197Z,7.37
2023-02-05T05:06:15.622Z,7.47
2023-02-05T05:08:43.112Z,9.33
2023-02-05T05:11:12.736Z,6.23
2023-02-05T05:13:40.443Z,7.63
2023-02-05T05:16:08.193Z,5.97
2023-02-05T05:18:35.188Z,9.57
2023-02-05T05:21:02.846Z,6.23
2023-02-05T05:23:31.245Z,5.37
2023-02-05T05:25:58.222Z,6.60
2023-02-05T05:28:25.111Z,6.77
2023-02-05T05:30:51.942Z,9.40
2023-02-05T05:33:18.765Z,6.40
2023-02-05T05:35:46.232Z,5.83
2023-02-05T05:38:13.155Z,9.60
2023-02-05T05:40:58.499Z,9.10
2023-02-05T05:43:43.984Z,7.10
2023-02-05T05:46:10.874Z,11.40
2023-02-05T05:48:37.748Z,8.10
2023-02-05T05:51:04.785Z,8.00
2023-02-05T05:53:32.197Z,10.13
2023-02-05T05:55:58.940Z,7.47
2023-02-05T05:58:25.758Z,6.77
2023-02-05T06:00:52.432Z,6.40
2023-02-05T06:03:19.215Z,10.23
2023-02-05T06:05:46.099Z,9.77
2023-02-05T06:08:14.307Z,9.07
2023-02-05T06:10:41.166Z,9.30
2023-02-05T06:13:08.221Z,7.67
2023-02-05T06:15:35.431Z,7.70
2023-02-05T06:18:02.663Z,8.80
2023-02-05T06:20:29.402Z,9.23
2023-02-05T06:22:56.259Z,8.27
2023-02-05T06:25:23.044Z,8.00
2023-02-05T06:27:49.917Z,7.80
2023-02-05T06:30:16.833Z,8.73
2023-02-05T06:32:43.564Z,7.37
2023-02-05T06:35:10.355Z,6.83
2023-02-05T06:37:48.519Z,10.67
2023-02-05T06:40:18.202Z,10.03
2023-02-05T06:42:45.281Z,9.07
2023-02-05T06:45:12.070Z,11.83
2023-02-05T06:47:39.021Z,12.83
2023-02-05T06:50:06.850Z,10.53
2023-02-05T06:52:34.952Z,8.20
2023-02-05T06:55:01.883Z,8.53
2023-02-05T06:57:28.580Z,11.07
2023-02-05T06:59:55.275Z,9.53
2023-02-05T07:02:21.978Z,11.13
2023-02-05T07:04:48.971Z,7.07
2023-02-05T07:07:17.142Z,8.60
2023-02-05T07:09:44.176Z,8.13
2023-02-05T07:12:11.087Z,9.50
2023-02-05T07:14:39.487Z,8.40
2023-02-05T07:17:06.354Z,7.87
2023-02-05T07:19:33.269Z,8.47
2023-02-05T07:22:00.485Z,9.00
2023-02-05T07:24:27.479Z,10.93
2023-02-05T07:26:54.394Z,8.43
2023-02-05T07:29:21.212Z,6.90
2023-02-05T07:31:50.484Z,8.93
2023-02-05T07:34:17.392Z,9.33
2023-02-05T07:36:44.292Z,9.43
2023-02-05T07:39:11.264Z,6.33
2023-02-05T07:41:37.978Z,9.10
2023-02-05T07:44:04.776Z,10.53
2023-02-05T07:46:31.583Z,8.33
2023-02-05T07:48:58.290Z,8.00
2023-02-05T07:51:26.004Z,6.60
2023-02-05T07:53:53.556Z,7.30
2023-02-05T07:56:25.692Z,5.40
2023-02-05T07:58:52.677Z,9.30
2023-02-05T08:01:19.431Z,8.60
2023-02-05T08:03:46.249Z,10.53
2023-02-05T08:06:15.550Z,7.10
2023-02-05T08:08:42.469Z,8.40
2023-02-05T08:11:14.660Z,12.47
2023-02-05T08:13:41.743Z,8.20
2023-02-05T08:16:09.165Z,7.47
2023-02-05T08:18:35.962Z,8.27
2023-02-05T08:21:02.988Z,9.07
2023-02-05T08:23:32.929Z,10.23
2023-02-05T08:26:00.694Z,6.37
2023-02-05T08:28:28.702Z,7.50
2023-02-05T08:30:56.677Z,8.30
2023-02-05T08:33:23.757Z,8.73
2023-02-05T08:35:50.526Z,7.37
2023-02-05T08:38:17.285Z,8.53
2023-02-05T08:40:44.147Z,8.23
2023-02-05T08:43:11.414Z,9.00
2023-02-05T08:45:39.271Z,7.60
2023-02-05T08:48:06.088Z,9.43
2023-02-05T08:50:32.838Z,8.70
2023-02-05T08:52:59.569Z,9.00
2023-02-05T08:55:26.219Z,10.93
2023-02-05T08:57:53.073Z,7.73
2023-02-05T09:00:21.207Z,9.20
2023-02-05T09:02:48.072Z,9.27
2023-02-05T09:05:15.097Z,12.57
2023-02-05T09:07:42.295Z,10.90
2023-02-05T09:10:11.460Z,12.17
2023-02-05T09:12:38.430Z,8.97
2023-02-05T09:15:06.499Z,11.97
2023-02-05T09:17:33.244Z,10.87
2023-02-05T09:20:00.022Z,14.83
2023-02-05T09:22:26.742Z,13.63
2023-02-05T09:24:53.440Z,11.80
2023-02-05T09:27:20.132Z,11.93
2023-02-05T09:29:47.111Z,11.63
2023-02-05T09:32:13.918Z,9.70
2023-02-05T09:34:40.676Z,10.37
2023-02-05T09:37:07.319Z,9.17
2023-02-05T09:40:18.412Z,10.53
2023-02-05T09:42:39.646Z,12.10
2023-02-05T09:45:26.043Z,11.93
2023-02-05T09:48:30.577Z,13.40
2023-02-05T09:50:58.312Z,9.20
2023-02-05T09:53:29.591Z,11.80
2023-02-05T09:56:00.657Z,10.97
2023-02-05T09:58:32.096Z,12.27
2023-02-05T10:01:12.490Z,13.60
2023-02-05T10:03:57.553Z,17.60
2023-02-05T10:06:44.809Z,13.93
2023-02-05T10:09:25.799Z,15.57
2023-02-05T10:12:01.434Z,14.70
2023-02-05T10:14:47.303Z,13.30
2023-02-05T10:17:18.036Z,14.77
2023-02-05T10:19:47.661Z,15.57
2023-02-05T10:22:23.594Z,15.40
2023-02-05T10:25:33.718Z,15.07
2023-02-05T10:28:19.514Z,15.87
2023-02-05T10:30:50.607Z,18.27
2023-02-05T10:33:23.945Z,15.77
2023-02-05T10:36:01.184Z,14.80
2023-02-05T10:38:32.896Z,18.63
2023-02-05T10:41:12.067Z,21.93
2023-02-05T10:43:47.582Z,19.97
2023-02-05T10:46:16.598Z,18.50
2023-02-05T10:49:10.987Z,22.07
2023-02-05T10:51:42.713Z,18.13
2023-02-05T10:54:27.821Z,23.63
2023-02-05T10:56:55.824Z,21.20
2023-02-05T10:59:31.556Z,21.77
2023-02-05T11:02:03.514Z,20.60
2023-02-05T11:04:49.446Z,24.30
2023-02-05T11:07:35.605Z,21.47
2023-02-05T11:10:14.683Z,22.63
2023-02-05T11:12:45.130Z,21.77
2023-02-05T11:15:25.375Z,23.30
2023-02-05T11:18:05.013Z,21.03
2023-02-05T11:20:38.822Z,25.40
2023-02-05T11:23:20.273Z,26.77
2023-02-05T11:25:59.247Z,25.37
2023-02-05T11:28:31.367Z,25.90
2023-02-05T11:30:58.879Z,28.60
2023-02-05T11:33:28.928Z,26.37
2023-02-05T11:36:03.172Z,28.83
2023-02-05T11:38:51.769Z,21.57
2023-02-05T11:41:32.304Z,27.47
2023-02-05T11:44:00.965Z,25.67
2023-02-05T11:46:32.159Z,25.70
2023-02-05T11:49:03.407Z,28.37
2023-02-05T11:51:39.425Z,22.50
2023-02-05T11:54:15.815Z,24.77
2023-02-05T11:56:42.609Z,24.37
2023-02-05T11:59:22.198Z,26.67
2023-02-05T12:01:49.861Z,23.53
2023-02-05T12:04:21.580Z,22.43
2023-02-05T12:06:57.562Z,22.10
2023-02-05T12:09:27.413Z,23.10
2023-02-05T12:12:03.456Z,24.00
2023-02-05T12:14:38.062Z,22.37
2023-02-05T12:17:41.515Z,26.97
2023-02-05T12:20:38.926Z,22.70
2023-02-05T12:23:30.220Z,20.57
2023-02-05T12:26:21.146Z,21.37
2023-02-05T12:29:16.196Z,19.63
2023-02-05T12:31:51.773Z,19.40
2023-02-05T12:34:29.365Z,23.60
2023-02-05T12:37:27.615Z,26.77
2023-02-05T12:40:07.378Z,23.80
2023-02-05T12:42:43.889Z,20.63
2023-02-05T12:45:39.585Z,21.97
2023-02-05T12:48:34.996Z,25.33
2023-02-05T12:51:08.591Z,24.23
2023-02-05T12:53:57.271Z,27.13
2023-02-05T12:56:39.033Z,23.27
2023-02-05T12:59:15.057Z,26.90
2023-02-05T13:01:56.184Z,21.33
2023-02-05T13:04:32.695Z,24.67
2023-02-05T13:07:26.736Z,22.83
2023-02-05T13:10:22.030Z,21.23
2023-02-05T13:13:05.959Z,23.13
2023-02-05T13:15:44.681Z,19.83
2023-02-05T13:18:25.860Z,21.03
2023-02-05T13:21:19.275Z,26.00
2023-02-05T13:24:06.217Z,23.37
2023-02-05T13:26:58.722Z,19.30
2023-02-05T13:29:32.263Z,21.40
2023-02-05T13:32:15.383Z,19.73
2023-02-05T13:34:43.437Z,20.77
2023-02-05T13:37:37.743Z,23.73
2023-02-05T13:40:35.120Z,22.97
2023-02-05T13:43:37.298Z,19.57
2023-02-05T13:46:36.532Z,21.00
2023-02-05T13:49:13.179Z,26.80
2023-02-05T13:52:20.871Z,22.90
2023-02-05T13:54:50.653Z,25.03
2023-02-05T13:58:05.106Z,18.20
2023-02-05T14:00:33.287Z,24.07
2023-02-05T14:03:05.617Z,24.73
2023-02-05T14:05:36.033Z,24.53
2023-02-05T14:08:04.069Z,22.90
2023-02-05T14:10:42.093Z,22.70
2023-02-05T14:13:32.547Z,21.03
2023-02-05T14:16:25.023Z,21.00
2023-02-05T14:19:00.857Z,22.37
2023-02-05T14:21:30.771Z,22.97
2023-02-05T14:24:43.984Z,21.50
2023-02-05T14:27:33.925Z,23.10
2023-02-05T14:30:29.682Z,23.23
2023-02-05T14:33:01.924Z,19.63
2023-02-05T14:35:38.780Z,23.70
2023-02-05T14:38:23.883Z,20.30
2023-02-05T14:41:35.965Z,21.63
2023-02-05T14:44:05.776Z,19.03
2023-02-05T14:46:37.702Z,22.10
2023-02-05T14:49:07.905Z,21.17
2023-02-05T14:51:43.314Z,22.20
2023-02-05T14:54:22.937Z,18.90
2023-02-05T14:56:54.016Z,21.93
2023-02-05T14:59:30.663Z,18.97
2023-02-05T15:01:59.763Z,20.57
2023-02-05T15:04:50.336Z,24.00
2023-02-05T15:07:24.364Z,22.67
2023-02-05T15:10:06.145Z,17.43
2023-02-05T15:12:39.036Z,23.57
2023-02-05T15:15:33.218Z,19.17
2023-02-05T15:18:15.450Z,27.00
2023-02-05T15:20:47.608Z,24.57
2023-02-05T15:23:19.519Z,30.83
2023-02-05T15:25:54.501Z,24.57
2023-02-05T15:28:58.980Z,24.67
2023-02-05T15:31:33.894Z,24.13
2023-02-05T15:34:11.534Z,24.50
2023-02-05T15:36:45.925Z,20.97
2023-02-05T15:39:27.995Z,19.23
2023-02-05T15:41:57.726Z,26.47
2023-02-05T15:44:33.448Z,24.70
2023-02-05T15:47:04.140Z,23.73
2023-02-05T15:49:43.092Z,22.03
2023-02-05T15:52:21.372Z,23.73
2023-02-05T15:54:49.459Z,19.90
2023-02-05T15:57:28.769Z,20.07
2023-02-05T15:59:56.944Z,21.80
2023-02-05T16:02:27.095Z,21.83
2023-02-05T16:05:04.038Z,20.67
2023-02-05T16:07:39.989Z,19.77
2023-02-05T16:10:20.613Z,21.13
2023-02-05T16:13:05.135Z,22.13
2023-02-05T16:15:42.997Z,21.93
2023-02-05T16:18:20.269Z,23.90
2023-02-05T16:20:53.106Z,23.23
2023-02-05T16:23:36.874Z,24.67
2023-02-05T16:26:10.978Z,20.30
2023-02-05T16:28:45.521Z,18.33
2023-02-05T16:31:21.553Z,21.47
2023-02-05T16:33:52.319Z,20.33
2023-02-05T16:36:23.686Z,25.97
2023-02-05T16:38:52.989Z,28.43
2023-02-05T16:41:25.579Z,25.40
2023-02-05T16:43:57.156Z,17.80
2023-02-05T16:46:36.911Z,20.47
2023-02-05T16:49:23.838Z,20.13
2023-02-05T16:51:50.688Z,19.10
2023-02-05T16:54:20.413Z,15.83
2023-02-05T16:57:08.285Z,18.80
2023-02-05T17:00:08.498Z,20.00
2023-02-05T17:02:41.573Z,22.77
2023-02-05T17:05:21.791Z,24.93
2023-02-05T17:08:01.354Z,30.00
2023-02-05T17:10:29.165Z,23.10
2023-02-05T17:13:01.702Z,22.40
2023-02-05T17:15:34.637Z,28.40
2023-02-05T17:18:17.251Z,23.63
2023-02-05T17:20:45.560Z,21.73
2023-02-05T17:23:16.875Z,22.43
2023-02-05T17:25:51.644Z,17.43
2023-02-05T17:28:27.035Z,22.83
2023-02-05T17:30:57.638Z,20.67
2023-02-05T17:33:27.251Z,17.17
2023-02-05T17:35:54.482Z,17.33
2023-02-05T17:38:23.542Z,15.43
2023-02-05T17:40:50.470Z,20.40
2023-02-05T17:43:17.137Z,17.43
2023-02-05T17:45:44.427Z,16.33
2023-02-05T17:48:11.570Z,17.93
2023-02-05T17:50:39.059Z,20.37
2023-02-05T17:53:06.061Z,15.73
2023-02-05T17:55:33.284Z,15.43
2023-02-05T17:58:00.183Z,15.13
2023-02-05T18:00:28.921Z,16.10
2023-02-05T18:02:55.622Z,16.77
2023-02-05T18:05:22.829Z,22.10
2023-02-05T18:07:53.056Z,27.50
2023-02-05T18:10:35.337Z,33.37
2023-02-05T18:13:03.027Z,28.20
2023-02-05T18:15:32.281Z,23.53
2023-02-05T18:17:58.924Z,20.57
2023-02-05T18:20:45.882Z,18.50
2023-02-05T18:23:18.677Z,18.80
2023-02-05T18:25:51.173Z,17.33
2023-02-05T18:31:09.790Z,15.17
2023-02-05T18:33:37.260Z,16.37
2023-02-05T18:36:09.815Z,14.40
2023-02-05T18:38:37.716Z,14.00
2023-02-05T18:41:15.753Z,14.43
2023-02-05T18:43:43.126Z,13.30
2023-02-05T18:46:12.989Z,13.00
2023-02-05T18:48:43.803Z,12.13
2023-02-05T18:51:14.173Z,10.70
2023-02-05T18:53:43.031Z,12.13
2023-02-05T18:56:16.265Z,11.00
2023-02-05T18:58:44.783Z,10.80
2023-02-05T19:01:14.295Z,11.07
2023-02-05T19:03:42.144Z,9.13
2023-02-05T19:06:09.881Z,9.50
2023-02-05T19:08:37.486Z,12.07
2023-02-05T19:11:12.873Z,10.40
2023-02-05T19:13:39.645Z,9.53
2023-02-05T19:16:12.878Z,11.27
2023-02-05T19:18:44.745Z,13.40
2023-02-05T19:21:18.563Z,10.03
2023-02-05T19:23:49.241Z,10.23
2023-02-05T19:26:18.067Z,12.47
2023-02-05T19:28:46.924Z,11.10
2023-02-05T19:31:15.087Z,12.47
2023-02-05T19:33:42.183Z,11.57
2023-02-05T19:36:10.707Z,12.20
2023-02-05T19:38:38.780Z,13.03
2023-02-05T19:41:12.487Z,14.10
2023-02-05T19:43:40.775Z,13.13
2023-02-05T19:46:09.037Z,13.10
2023-02-05T19:48:35.853Z,15.13
2023-02-05T19:51:07.397Z,13.37
2023-02-05T19:53:35.604Z,13.30
2023-02-05T19:56:08.403Z,15.40
2023-02-05T19:58:37.197Z,14.23
2023-02-05T20:01:14.424Z,12.63
2023-02-05T20:03:42.212Z,14.73
2023-02-05T20:06:09.555Z,14.13
2023-02-05T20:08:36.248Z,13.27
2023-02-05T20:11:03.825Z,13.77
2023-02-05T20:13:33.154Z,13.23
2023-02-05T20:16:05.001Z,14.30
2023-02-05T20:18:31.977Z,15.90
2023-02-05T20:20:58.911Z,14.17
2023-02-05T20:23:26.519Z,14.33
2023-02-05T20:25:57.911Z,15.53
2023-02-05T20:28:27.983Z,15.03
2023-02-05T20:31:13.403Z,13.73
2023-02-05T20:33:40.194Z,14.07
2023-02-05T20:36:09.119Z,14.97
2023-02-05T20:38:35.982Z,16.67
2023-02-05T20:41:14.497Z,14.33
2023-02-05T20:43:41.925Z,14.10
2023-02-05T20:46:10.690Z,13.40
2023-02-05T20:48:38.629Z,13.50
2023-02-05T20:51:12.915Z,13.03
2023-02-05T20:53:40.546Z,12.57
2023-02-05T20:56:10.496Z,13.40
2023-02-05T20:58:37.333Z,12.97
2023-02-05T21:01:31.742Z,13.27
2023-02-05T21:04:02.151Z,12.47
2023-02-05T21:06:31.760Z,13.27
2023-02-05T21:08:58.645Z,12.47
2023-02-05T21:11:26.938Z,12.87
2023-02-05T21:13:54.154Z,12.83
2023-02-05T21:16:24.200Z,13.57
2023-02-05T21:18:52.971Z,13.73
2023-02-05T21:21:25.763Z,13.47
2023-02-05T21:24:01.295Z,12.93
2023-02-05T21:26:30.948Z,14.07
2023-02-05T21:29:00.163Z,13.70
2023-02-05T21:31:35.376Z,14.17
2023-02-05T21:34:03.399Z,15.13
2023-02-05T21:36:30.828Z,15.67
2023-02-05T21:38:58.164Z,14.67
2023-02-05T21:41:24.967Z,14.23
2023-02-05T21:43:54.142Z,16.47
2023-02-05T21:46:21.913Z,13.87
2023-02-05T21:48:50.755Z,14.90
2023-02-05T21:51:19.788Z,13.37
2023-02-05T21:53:46.601Z,12.83
2023-02-05T21:56:16.556Z,13.07
2023-02-05T21:58:43.827Z,13.40
2023-02-05T22:01:25.957Z,13.00
2023-02-05T22:04:04.776Z,13.40
2023-02-05T22:06:33.937Z,14.47
2023-02-05T22:09:03.827Z,11.27
2023-02-05T22:11:31.192Z,12.10
2023-02-05T22:13:57.991Z,11.23
2023-02-05T22:16:30.334Z,15.87
2023-02-05T22:18:58.480Z,11.87
2023-02-05T22:21:27.703Z,12.00
2023-02-05T22:23:56.692Z,12.63
2023-02-05T22:26:26.623Z,13.73
2023-02-05T22:28:53.627Z,11.83
2023-02-05T22:31:21.581Z,11.70
2023-02-05T22:33:49.927Z,12.00
2023-02-05T22:36:22.398Z,15.97
2023-02-05T22:38:51.037Z,13.40
2023-02-05T22:41:22.594Z,12.97
2023-02-05T22:43:50.042Z,12.83
2023-02-05T22:46:20.457Z,12.07
2023-02-05T22:48:49.151Z,12.43
2023-02-05T22:51:21.722Z,11.87
2023-02-05T22:53:48.972Z,12.50
2023-02-05T22:56:16.670Z,12.87
2023-02-05T22:58:45.356Z,11.97
2023-02-05T23:01:15.661Z,12.63
2023-02-05T23:03:43.466Z,13.13
2023-02-05T23:06:14.275Z,13.80
2023-02-05T23:08:41.591Z,13.67
2023-02-05T23:11:15.539Z,13.37
2023-02-05T23:13:42.608Z,12.10
2023-02-05T23:16:19.064Z,12.80
2023-02-05T23:18:47.615Z,13.30
2023-02-05T23:21:23.093Z,12.40
2023-02-05T23:23:50.307Z,12.73
2023-02-05T23:26:39.849Z,13.20
2023-02-05T23:29:06.956Z,12.53
2023-02-05T23:31:33.973Z,13.13
2023-02-05T23:34:01.320Z,12.37
2023-02-05T23:36:28.434Z,11.83
2023-02-05T23:38:55.171Z,11.63
2023-02-05T23:41:37.484Z,12.37
2023-02-05T23:44:15.529Z,10.70
2023-02-05T23:46:43.651Z,11.33
2023-02-05T23:49:11.314Z,11.10
2023-02-05T23:51:38.166Z,10.77
2023-02-05T23:54:05.934Z,9.50
2023-02-05T23:56:32.979Z,10.93
2023-02-05T23:59:00.139Z,9.90
